Amy C. Mc Allister — WCZ9520 — position and weather

sailwx.info

Track history (hours):
 
Tides and Currents Weather Stations Pressure Air Temp Water Temp Dewpoint Dewpoint Depression Visibility Wind Speed Wind Dir Waves Ship Positions

Amy C. Mc Allister

Owner: MC ALLISTER TOWING & TRANSPORTATION INC, NEW YORK, NY. More information available from US FCC via Universal Licensing System and Coast Guard Vessel Documentation Center.

Last reported at 2018-Jun-24 01:30 UTC. Time now 2018-Jun-24 01:43 UTC.
Position N 39°32' W 075°51'.

; draft 4.9 m.

Type: Towing. MMSI: 366995040.

Date/timePositionNaut miles runAvg speedWind from/ knotsBaromVisibWave heightAir tempDewpointWater temp
2018-Jun-24 01:30N 39°32' W 075°51'3 6.4
2018-Jun-24 01:01N 39°30' W 075°55'4 7.6
2018-Jun-24 00:30N 39°28' W 075°58'4 8.6
2018-Jun-24 00:01N 39°25' W 076°02'5 8.6
2018-Jun-23 23:29N 39°22' W 076°07'18 7.1
2018-Jun-23 20:57N 39°10' W 076°24'4 9.1
2018-Jun-23 20:30N 39°11' W 076°28'4 8.9
2018-Jun-23 20:01N 39°14' W 076°33'1 2.6
2018-Jun-23 19:30N 39°15' W 076°33'0 0.0
2018-Jun-23 19:01N 39°15' W 076°33'0 0.0
2018-Jun-23 18:31N 39°15' W 076°33'0 0.0
2018-Jun-23 18:00N 39°15' W 076°33'0 0.0
2018-Jun-23 17:30N 39°15' W 076°33'0 0.0
2018-Jun-23 17:01N 39°15' W 076°33'0 0.0
2018-Jun-23 16:31N 39°15' W 076°33'0 0.0
2018-Jun-23 16:00N 39°15' W 076°33'0 0.0
2018-Jun-23 15:30N 39°15' W 076°33'0 0.0
2018-Jun-23 15:00N 39°15' W 076°33'0 0.0
2018-Jun-23 14:31N 39°15' W 076°33'0 0.0
2018-Jun-23 14:00N 39°15' W 076°33'0 0.0
2018-Jun-23 13:31N 39°15' W 076°33'0 0.0
2018-Jun-23 13:00N 39°15' W 076°33'0 0.0
2018-Jun-23 12:30N 39°15' W 076°33'0 0.0
2018-Jun-23 12:01N 39°15' W 076°33'0 0.0
2018-Jun-23 11:31N 39°15' W 076°33'0 0.0
2018-Jun-23 11:01N 39°15' W 076°33'0 0.0
2018-Jun-23 10:31N 39°15' W 076°33'0 0.0
2018-Jun-23 10:00N 39°15' W 076°33'0 0.0
2018-Jun-23 09:31N 39°15' W 076°33'0 0.0
2018-Jun-23 09:00N 39°15' W 076°33'0 0.0
2018-Jun-23 08:30N 39°15' W 076°33'0 0.0
2018-Jun-23 08:00N 39°15' W 076°33'0 0.0
2018-Jun-23 07:30N 39°15' W 076°33'0 0.0
2018-Jun-23 07:01N 39°15' W 076°33'0 0.0
2018-Jun-23 06:30N 39°15' W 076°33'0 0.0
2018-Jun-23 06:00N 39°15' W 076°33'0 0.0
2018-Jun-23 05:30N 39°15' W 076°33'0 0.0
2018-Jun-23 05:01N 39°15' W 076°33'0 0.0
2018-Jun-23 04:30N 39°15' W 076°33'0 0.0
2018-Jun-23 04:00N 39°15' W 076°33'0 0.0
2018-Jun-23 03:30N 39°15' W 076°33'0 0.0
2018-Jun-23 03:00N 39°15' W 076°33'0 0.0
2018-Jun-23 02:30N 39°15' W 076°33'0 0.0
2018-Jun-23 02:00N 39°15' W 076°33'0 0.0
2018-Jun-23 01:31N 39°15' W 076°33'0 0.0
2018-Jun-23 01:00N 39°15' W 076°33'0 0.0
2018-Jun-23 00:31N 39°15' W 076°33'0 0.0
2018-Jun-23 00:01N 39°15' W 076°33'0 0.0
2018-Jun-22 23:31N 39°15' W 076°33'0 0.0
2018-Jun-22 23:01N 39°15' W 076°33'0 0.0
2018-Jun-22 22:31N 39°15' W 076°33'0 0.0
2018-Jun-22 22:00N 39°15' W 076°33'0 0.0
2018-Jun-22 21:30N 39°15' W 076°33'0 0.0
2018-Jun-22 21:00N 39°15' W 076°33'0 0.0
2018-Jun-22 20:30N 39°15' W 076°33'0 0.0
2018-Jun-22 20:01N 39°15' W 076°33'0 0.0
2018-Jun-22 19:31N 39°15' W 076°33'0 0.0
2018-Jun-22 19:00N 39°15' W 076°33'0 0.0
2018-Jun-22 18:31N 39°15' W 076°33'0 0.0
2018-Jun-22 18:01N 39°15' W 076°33'0 0.0
2018-Jun-22 17:30N 39°15' W 076°33'0 0.0
2018-Jun-22 17:01N 39°15' W 076°33'0 0.0
2018-Jun-22 16:30N 39°15' W 076°33'0 0.0
2018-Jun-22 16:01N 39°15' W 076°33'0 0.0
2018-Jun-22 15:31N 39°15' W 076°33'0 0.0
2018-Jun-22 15:01N 39°15' W 076°33'0 0.0
2018-Jun-22 14:30N 39°15' W 076°33'0 0.0
2018-Jun-22 14:00N 39°15' W 076°33'0 0.0
2018-Jun-22 13:31N 39°15' W 076°33'0 0.0
2018-Jun-22 13:00N 39°15' W 076°33'0 0.0
2018-Jun-22 12:31N 39°15' W 076°33'0 0.0
2018-Jun-22 12:00N 39°15' W 076°33'0 0.0
2018-Jun-22 11:30N 39°15' W 076°33'0 0.0
2018-Jun-22 11:01N 39°15' W 076°33'0 0.0
2018-Jun-22 10:31N 39°15' W 076°33'0 0.0
2018-Jun-22 10:00N 39°15' W 076°33'0 0.0
2018-Jun-22 09:30N 39°15' W 076°33'0 0.0
2018-Jun-22 09:00N 39°15' W 076°33'0 0.0
2018-Jun-22 08:30N 39°15' W 076°33'0 0.0
2018-Jun-22 08:00N 39°15' W 076°33'0 0.0
2018-Jun-22 07:31N 39°15' W 076°33'0 0.0
2018-Jun-22 07:00N 39°15' W 076°33'0 0.0
2018-Jun-22 06:31N 39°15' W 076°33'0 0.0
2018-Jun-22 06:01N 39°15' W 076°33'0 0.0
2018-Jun-22 05:31N 39°15' W 076°33'0 0.0
2018-Jun-22 05:01N 39°15' W 076°33'0 0.0
2018-Jun-22 04:30N 39°15' W 076°33'0 0.0
2018-Jun-22 04:00N 39°15' W 076°33'0 0.0
2018-Jun-22 03:31N 39°15' W 076°33'0 0.0
2018-Jun-22 03:00N 39°15' W 076°33'0 0.0
2018-Jun-22 02:30N 39°15' W 076°33'0 0.0
2018-Jun-22 02:00N 39°15' W 076°33'0 0.0
2018-Jun-22 01:30N 39°15' W 076°33'0 0.0
2018-Jun-22 01:00N 39°15' W 076°33'0 0.0
2018-Jun-22 00:30N 39°15' W 076°33'0 0.0
2018-Jun-22 00:00N 39°15' W 076°33'0 0.0
2018-Jun-21 23:29N 39°15' W 076°33'0 0.6
2018-Jun-21 23:00N 39°15' W 076°33'2 3.9
2018-Jun-21 22:30N 39°13' W 076°32'3 6.4
2018-Jun-21 22:00N 39°12' W 076°29'3 6.2
2018-Jun-21 21:30N 39°10' W 076°25'137 7.1
2018-Jun-21 02:07N 36°53' W 076°20'0 3.7
2018-Jun-21 01:59N 36°53' W 076°21'2 0.5
2018-Jun-20 21:43N 36°55' W 076°20'0 0.0
2018-Jun-20 12:26N 36°55' W 076°20'0 0.0
2018-Jun-20 11:57N 36°55' W 076°20'0 0.0
2018-Jun-20 11:04N 36°55' W 076°20'2 2.6
2018-Jun-20 10:15N 36°52' W 076°20'1 0.4
2018-Jun-20 07:33N 36°51' W 076°20'0 0.1
2018-Jun-20 07:29N 36°51' W 076°20'0 0.0
2018-Jun-20 05:36N 36°51' W 076°20'0 0.0
2018-Jun-20 05:17N 36°51' W 076°20'0 0.0
2018-Jun-20 04:43N 36°51' W 076°20'0 0.0
2018-Jun-20 04:21N 36°51' W 076°20'0 0.0
2018-Jun-20 03:58N 36°51' W 076°20'0 0.0
2018-Jun-20 03:29N 36°51' W 076°20'0 0.0
2018-Jun-20 01:18N 36°51' W 076°20'0 0.0
2018-Jun-20 00:54N 36°51' W 076°20'0 0.0
2018-Jun-20 00:29N 36°51' W 076°20'0 0.0
2018-Jun-19 22:55N 36°51' W 076°20'0 0.0
2018-Jun-19 22:04N 36°51' W 076°20'0 0.0
2018-Jun-19 21:39N 36°51' W 076°20'0 0.0
2018-Jun-19 21:30N 36°51' W 076°20'0 0.0
2018-Jun-19 21:00N 36°51' W 076°20'3 1.6
2018-Jun-19 19:12N 36°54' W 076°20'0 0.0
2018-Jun-19 19:00N 36°54' W 076°20'0 0.0
2018-Jun-19 18:29N 36°54' W 076°20'0 0.0
2018-Jun-19 18:00N 36°54' W 076°20'2 2.8
2018-Jun-19 17:26N 36°53' W 076°20'3 6.5
2018-Jun-19 16:59N 36°50' W 076°18'0 0.1
2018-Jun-19 14:41N 36°50' W 076°17'0 0.0
2018-Jun-19 13:24N 36°50' W 076°17'0 0.0
2018-Jun-19 12:41N 36°50' W 076°17'0 0.0
2018-Jun-19 11:49N 36°50' W 076°17'0 0.0
2018-Jun-19 11:13N 36°50' W 076°17'0 0.0
2018-Jun-19 10:54N 36°50' W 076°17'0 0.0
2018-Jun-19 07:09N 36°50' W 076°17'0 0.0
2018-Jun-19 05:07N 36°50' W 076°17'0 0.0
2018-Jun-19 04:13N 36°50' W 076°17'0 0.0
2018-Jun-19 03:02N 36°50' W 076°17'0 0.0
2018-Jun-19 02:54N 36°50' W 076°17'0 0.0
2018-Jun-19 02:30N 36°50' W 076°17'0 0.0
2018-Jun-19 01:19N 36°50' W 076°17'0 0.0
2018-Jun-19 00:28N 36°50' W 076°17'0 0.0
2018-Jun-18 23:52N 36°50' W 076°17'5 1.2
2018-Jun-18 19:56N 36°55' W 076°20'24 1.6
2018-Jun-18 04:30N 37°18' W 076°10'4 7.5
2018-Jun-18 03:59N 37°21' W 076°10'87 8.3
2018-Jun-17 17:33N 38°47' W 076°26'0 9.1
2018-Jun-17 17:30N 38°48' W 076°26'4 8.5
2018-Jun-17 17:00N 38°52' W 076°25'4 8.4
2018-Jun-17 16:30N 38°56' W 076°23'21 7.9
2018-Jun-17 13:50N 39°16' W 076°14'3 7.7
2018-Jun-17 13:29N 39°18' W 076°13'4 7.5
2018-Jun-17 13:00N 39°21' W 076°10'4 8.2
2018-Jun-17 12:29N 39°23' W 076°05'4 8.7
2018-Jun-17 11:59N 39°26' W 076°01'4 9.3
2018-Jun-17 11:30N 39°29' W 075°57'11 7.9
2018-Jun-17 10:09N 39°32' W 075°44'1 9.7
2018-Jun-17 10:00N 39°33' W 075°42'5 9.5
2018-Jun-17 09:30N 39°33' W 075°36'3 5.4
2018-Jun-17 09:00N 39°36' W 075°34'4 8.4
2018-Jun-17 08:30N 39°40' W 075°32'4 9.0
2018-Jun-17 08:00N 39°44' W 075°30'4 7.9
2018-Jun-17 07:29N 39°47' W 075°27'4 7.9
2018-Jun-17 07:00N 39°49' W 075°23'3 6.9
2018-Jun-17 06:30N 39°51' W 075°19'4 7.2
2018-Jun-17 06:00N 39°51' W 075°15'4 7.4
2018-Jun-17 05:30N 39°53' W 075°10'3 5.2
2018-Jun-17 05:01N 39°55' W 075°08'1 1.1
2018-Jun-17 04:30N 39°54' W 075°08'0 0.0
2018-Jun-17 04:00N 39°54' W 075°08'0 0.0
2018-Jun-17 03:30N 39°54' W 075°08'0 0.0
2018-Jun-17 03:00N 39°54' W 075°08'0 0.0
2018-Jun-17 02:30N 39°54' W 075°08'0 0.0
2018-Jun-17 02:00N 39°54' W 075°08'0 0.0
2018-Jun-17 01:30N 39°54' W 075°08'0 0.0
2018-Jun-17 01:00N 39°54' W 075°08'0 0.0
2018-Jun-17 00:30N 39°54' W 075°08'0 0.0
2018-Jun-17 00:00N 39°54' W 075°08'0 0.3
2018-Jun-16 23:30N 39°54' W 075°08'0 0.0
2018-Jun-16 23:00N 39°54' W 075°08'0 0.0
2018-Jun-16 22:30N 39°54' W 075°08'0 0.0
2018-Jun-16 22:00N 39°54' W 075°08'0 0.0
2018-Jun-16 21:30N 39°54' W 075°08'0 0.0
2018-Jun-16 21:00N 39°54' W 075°08'0 0.0
2018-Jun-16 20:30N 39°54' W 075°08'0 0.0
2018-Jun-16 20:00N 39°54' W 075°08'0 0.0
2018-Jun-16 19:30N 39°54' W 075°08'0 0.0
2018-Jun-16 19:00N 39°54' W 075°08'0 0.0
2018-Jun-16 18:30N 39°54' W 075°08'0 0.0
2018-Jun-16 18:00N 39°54' W 075°08'0 0.0
2018-Jun-16 17:30N 39°54' W 075°08'0 0.0
2018-Jun-16 17:00N 39°54' W 075°08'0 0.1
2018-Jun-16 16:30N 39°54' W 075°08'0 0.2
2018-Jun-16 16:00N 39°54' W 075°08'1 1.7
2018-Jun-16 15:30N 39°53' W 075°08'2 3.4
2018-Jun-16 15:00N 39°53' W 075°10'2 3.4
2018-Jun-16 14:30N 39°52' W 075°12'2 3.6
2018-Jun-16 14:00N 39°51' W 075°14'2 4.0
2018-Jun-16 13:30N 39°51' W 075°17'2 4.1
2018-Jun-16 13:01N 39°51' W 075°20'2 4.0
2018-Jun-16 12:31N 39°50' W 075°22'2 3.6
2018-Jun-16 12:00N 39°49' W 075°24'2 4.0
2018-Jun-16 11:30N 39°48' W 075°26'2 3.9
2018-Jun-16 11:00N 39°47' W 075°28'2 3.9
2018-Jun-16 10:31N 39°45' W 075°29'2 4.0
2018-Jun-16 10:00N 39°43' W 075°30'3 5.1
2018-Jun-16 09:30N 39°41' W 075°31'3 5.7
2018-Jun-16 09:01N 39°39' W 075°34'3 5.1
2018-Jun-16 08:30N 39°36' W 075°34'2 4.7
2018-Jun-16 08:00N 39°34' W 075°34'3 6.7
2018-Jun-16 07:30N 39°33' W 075°38'3 6.5
2018-Jun-16 07:00N 39°33' W 075°43'32 7.1
2018-Jun-16 02:25N 39°12' W 076°15'6 7.5
2018-Jun-16 01:40N 39°09' W 076°21'1 7.8
2018-Jun-16 01:31N 39°10' W 076°23'4 8.1
2018-Jun-16 01:00N 39°11' W 076°28'4 7.9
2018-Jun-16 00:30N 39°13' W 076°32'2 4.5
2018-Jun-16 00:01N 39°15' W 076°33'0 0.0
2018-Jun-15 23:30N 39°15' W 076°33'2 3.1
2018-Jun-15 23:01N 39°16' W 076°35'0 0.2
2018-Jun-15 22:31N 39°16' W 076°35'0 0.0
2018-Jun-15 22:01N 39°16' W 076°35'0 0.0
2018-Jun-15 21:31N 39°16' W 076°35'0 0.0
2018-Jun-15 20:59N 39°16' W 076°35'0 0.0
2018-Jun-15 20:30N 39°16' W 076°35'0 0.7
2018-Jun-15 20:00N 39°16' W 076°35'1 1.5
2018-Jun-15 19:30N 39°16' W 076°36'0 0.0
2018-Jun-15 19:00N 39°16' W 076°36'0 0.0
2018-Jun-15 18:31N 39°16' W 076°36'0 0.0
2018-Jun-15 18:00N 39°16' W 076°36'0 0.0
2018-Jun-15 17:31N 39°16' W 076°36'0 0.0
2018-Jun-15 17:01N 39°16' W 076°36'0 0.0
2018-Jun-15 16:30N 39°16' W 076°36'0 0.0
2018-Jun-15 16:00N 39°16' W 076°36'0 0.0
2018-Jun-15 15:30N 39°16' W 076°36'0 0.0
2018-Jun-15 15:00N 39°16' W 076°36'0 0.0
2018-Jun-15 14:30N 39°16' W 076°36'0 0.0
2018-Jun-15 14:00N 39°16' W 076°36'0 0.0
2018-Jun-15 13:30N 39°16' W 076°36'0 0.0
2018-Jun-15 13:00N 39°16' W 076°36'0 0.0
2018-Jun-15 12:30N 39°16' W 076°36'0 0.0
2018-Jun-15 12:00N 39°16' W 076°36'1 1.9
2018-Jun-15 11:30N 39°16' W 076°35'2 3.0
2018-Jun-15 11:00N 39°15' W 076°33'0 1.0
2018-Jun-15 10:30N 39°15' W 076°33'3 5.1
2018-Jun-15 10:00N 39°13' W 076°31'14 8.4
2018-Jun-15 08:21N 39°01' W 076°22'410.0
2018-Jun-15 07:56N 38°57' W 076°24'4 9.6
2018-Jun-15 07:30N 38°53' W 076°25'5 9.4
2018-Jun-15 07:00N 38°48' W 076°26'116 5.4
2018-Jun-14 09:33N 36°53' W 076°21'0 0.9
2018-Jun-14 09:30N 36°53' W 076°21'2 4.2
2018-Jun-14 08:57N 36°55' W 076°20'1 1.6
2018-Jun-14 08:30N 36°54' W 076°20'0 0.0
2018-Jun-14 08:00N 36°54' W 076°20'0 0.0
2018-Jun-14 07:30N 36°54' W 076°20'0 0.0
2018-Jun-14 07:00N 36°54' W 076°20'0 0.0
2018-Jun-14 06:30N 36°54' W 076°20'0 0.0
2018-Jun-14 05:57N 36°54' W 076°20'0 0.0
2018-Jun-14 05:25N 36°54' W 076°20'0 0.0
2018-Jun-14 04:58N 36°54' W 076°20'0 0.0
2018-Jun-14 04:23N 36°54' W 076°20'0 0.0
2018-Jun-14 03:48N 36°54' W 076°20'  
Track history (hours):
 
Tides and Currents Weather Stations Pressure Air Temp Water Temp Dewpoint Dewpoint Depression Visibility Wind Speed Wind Dir Waves Ship Positions

Amy C. Mc Allister

Owner: MC ALLISTER TOWING & TRANSPORTATION INC, NEW YORK, NY. More information available from US FCC via Universal Licensing System and Coast Guard Vessel Documentation Center.

Last reported at 2018-Jun-24 01:30 UTC. Time now 2018-Jun-24 01:43 UTC.
Position N 39°32' W 075°51'.

; draft 4.9 m.

Type: Towing. MMSI: 366995040.

Date/timePositionNaut miles runAvg speedWind from/ knotsBaromVisibWave heightAir tempDewpointWater temp
2018-Jun-24 01:30N 39°32' W 075°51'3 6.4
2018-Jun-24 01:01N 39°30' W 075°55'4 7.6
2018-Jun-24 00:30N 39°28' W 075°58'4 8.6
2018-Jun-24 00:01N 39°25' W 076°02'5 8.6
2018-Jun-23 23:29N 39°22' W 076°07'18 7.1
2018-Jun-23 20:57N 39°10' W 076°24'4 9.1
2018-Jun-23 20:30N 39°11' W 076°28'4 8.9
2018-Jun-23 20:01N 39°14' W 076°33'1 2.6
2018-Jun-23 19:30N 39°15' W 076°33'0 0.0
2018-Jun-23 19:01N 39°15' W 076°33'0 0.0
2018-Jun-23 18:31N 39°15' W 076°33'0 0.0
2018-Jun-23 18:00N 39°15' W 076°33'0 0.0
2018-Jun-23 17:30N 39°15' W 076°33'0 0.0
2018-Jun-23 17:01N 39°15' W 076°33'0 0.0
2018-Jun-23 16:31N 39°15' W 076°33'0 0.0
2018-Jun-23 16:00N 39°15' W 076°33'0 0.0
2018-Jun-23 15:30N 39°15' W 076°33'0 0.0
2018-Jun-23 15:00N 39°15' W 076°33'0 0.0
2018-Jun-23 14:31N 39°15' W 076°33'0 0.0
2018-Jun-23 14:00N 39°15' W 076°33'0 0.0
2018-Jun-23 13:31N 39°15' W 076°33'0 0.0
2018-Jun-23 13:00N 39°15' W 076°33'0 0.0
2018-Jun-23 12:30N 39°15' W 076°33'0 0.0
2018-Jun-23 12:01N 39°15' W 076°33'0 0.0
2018-Jun-23 11:31N 39°15' W 076°33'0 0.0
2018-Jun-23 11:01N 39°15' W 076°33'0 0.0
2018-Jun-23 10:31N 39°15' W 076°33'0 0.0
2018-Jun-23 10:00N 39°15' W 076°33'0 0.0
2018-Jun-23 09:31N 39°15' W 076°33'0 0.0
2018-Jun-23 09:00N 39°15' W 076°33'0 0.0
2018-Jun-23 08:30N 39°15' W 076°33'0 0.0
2018-Jun-23 08:00N 39°15' W 076°33'0 0.0
2018-Jun-23 07:30N 39°15' W 076°33'0 0.0
2018-Jun-23 07:01N 39°15' W 076°33'0 0.0
2018-Jun-23 06:30N 39°15' W 076°33'0 0.0
2018-Jun-23 06:00N 39°15' W 076°33'0 0.0
2018-Jun-23 05:30N 39°15' W 076°33'0 0.0
2018-Jun-23 05:01N 39°15' W 076°33'0 0.0
2018-Jun-23 04:30N 39°15' W 076°33'0 0.0
2018-Jun-23 04:00N 39°15' W 076°33'0 0.0
2018-Jun-23 03:30N 39°15' W 076°33'0 0.0
2018-Jun-23 03:00N 39°15' W 076°33'0 0.0
2018-Jun-23 02:30N 39°15' W 076°33'0 0.0
2018-Jun-23 02:00N 39°15' W 076°33'0 0.0
2018-Jun-23 01:31N 39°15' W 076°33'0 0.0
2018-Jun-23 01:00N 39°15' W 076°33'0 0.0
2018-Jun-23 00:31N 39°15' W 076°33'0 0.0
2018-Jun-23 00:01N 39°15' W 076°33'0 0.0
2018-Jun-22 23:31N 39°15' W 076°33'0 0.0
2018-Jun-22 23:01N 39°15' W 076°33'0 0.0
2018-Jun-22 22:31N 39°15' W 076°33'0 0.0
2018-Jun-22 22:00N 39°15' W 076°33'0 0.0
2018-Jun-22 21:30N 39°15' W 076°33'0 0.0
2018-Jun-22 21:00N 39°15' W 076°33'0 0.0
2018-Jun-22 20:30N 39°15' W 076°33'0 0.0
2018-Jun-22 20:01N 39°15' W 076°33'0 0.0
2018-Jun-22 19:31N 39°15' W 076°33'0 0.0
2018-Jun-22 19:00N 39°15' W 076°33'0 0.0
2018-Jun-22 18:31N 39°15' W 076°33'0 0.0
2018-Jun-22 18:01N 39°15' W 076°33'0 0.0
2018-Jun-22 17:30N 39°15' W 076°33'0 0.0
2018-Jun-22 17:01N 39°15' W 076°33'0 0.0
2018-Jun-22 16:30N 39°15' W 076°33'0 0.0
2018-Jun-22 16:01N 39°15' W 076°33'0 0.0
2018-Jun-22 15:31N 39°15' W 076°33'0 0.0
2018-Jun-22 15:01N 39°15' W 076°33'0 0.0
2018-Jun-22 14:30N 39°15' W 076°33'0 0.0
2018-Jun-22 14:00N 39°15' W 076°33'0 0.0
2018-Jun-22 13:31N 39°15' W 076°33'0 0.0
2018-Jun-22 13:00N 39°15' W 076°33'0 0.0
2018-Jun-22 12:31N 39°15' W 076°33'0 0.0
2018-Jun-22 12:00N 39°15' W 076°33'0 0.0
2018-Jun-22 11:30N 39°15' W 076°33'0 0.0
2018-Jun-22 11:01N 39°15' W 076°33'0 0.0
2018-Jun-22 10:31N 39°15' W 076°33'0 0.0
2018-Jun-22 10:00N 39°15' W 076°33'0 0.0
2018-Jun-22 09:30N 39°15' W 076°33'0 0.0
2018-Jun-22 09:00N 39°15' W 076°33'0 0.0
2018-Jun-22 08:30N 39°15' W 076°33'0 0.0
2018-Jun-22 08:00N 39°15' W 076°33'0 0.0
2018-Jun-22 07:31N 39°15' W 076°33'0 0.0
2018-Jun-22 07:00N 39°15' W 076°33'0 0.0
2018-Jun-22 06:31N 39°15' W 076°33'0 0.0
2018-Jun-22 06:01N 39°15' W 076°33'0 0.0
2018-Jun-22 05:31N 39°15' W 076°33'0 0.0
2018-Jun-22 05:01N 39°15' W 076°33'0 0.0
2018-Jun-22 04:30N 39°15' W 076°33'0 0.0
2018-Jun-22 04:00N 39°15' W 076°33'0 0.0
2018-Jun-22 03:31N 39°15' W 076°33'0 0.0
2018-Jun-22 03:00N 39°15' W 076°33'0 0.0
2018-Jun-22 02:30N 39°15' W 076°33'0 0.0
2018-Jun-22 02:00N 39°15' W 076°33'0 0.0
2018-Jun-22 01:30N 39°15' W 076°33'0 0.0
2018-Jun-22 01:00N 39°15' W 076°33'0 0.0
2018-Jun-22 00:30N 39°15' W 076°33'0 0.0
2018-Jun-22 00:00N 39°15' W 076°33'0 0.0
2018-Jun-21 23:29N 39°15' W 076°33'0 0.6
2018-Jun-21 23:00N 39°15' W 076°33'2 3.9
2018-Jun-21 22:30N 39°13' W 076°32'3 6.4
2018-Jun-21 22:00N 39°12' W 076°29'3 6.2
2018-Jun-21 21:30N 39°10' W 076°25'137 7.1
2018-Jun-21 02:07N 36°53' W 076°20'0 3.7
2018-Jun-21 01:59N 36°53' W 076°21'2 0.5
2018-Jun-20 21:43N 36°55' W 076°20'0 0.0
2018-Jun-20 12:26N 36°55' W 076°20'0 0.0
2018-Jun-20 11:57N 36°55' W 076°20'0 0.0
2018-Jun-20 11:04N 36°55' W 076°20'2 2.6
2018-Jun-20 10:15N 36°52' W 076°20'1 0.4
2018-Jun-20 07:33N 36°51' W 076°20'0 0.1
2018-Jun-20 07:29N 36°51' W 076°20'0 0.0
2018-Jun-20 05:36N 36°51' W 076°20'0 0.0
2018-Jun-20 05:17N 36°51' W 076°20'0 0.0
2018-Jun-20 04:43N 36°51' W 076°20'0 0.0
2018-Jun-20 04:21N 36°51' W 076°20'0 0.0
2018-Jun-20 03:58N 36°51' W 076°20'0 0.0
2018-Jun-20 03:29N 36°51' W 076°20'0 0.0
2018-Jun-20 01:18N 36°51' W 076°20'0 0.0
2018-Jun-20 00:54N 36°51' W 076°20'0 0.0
2018-Jun-20 00:29N 36°51' W 076°20'0 0.0
2018-Jun-19 22:55N 36°51' W 076°20'0 0.0
2018-Jun-19 22:04N 36°51' W 076°20'0 0.0
2018-Jun-19 21:39N 36°51' W 076°20'0 0.0
2018-Jun-19 21:30N 36°51' W 076°20'0 0.0
2018-Jun-19 21:00N 36°51' W 076°20'3 1.6
2018-Jun-19 19:12N 36°54' W 076°20'0 0.0
2018-Jun-19 19:00N 36°54' W 076°20'0 0.0
2018-Jun-19 18:29N 36°54' W 076°20'0 0.0
2018-Jun-19 18:00N 36°54' W 076°20'2 2.8
2018-Jun-19 17:26N 36°53' W 076°20'3 6.5
2018-Jun-19 16:59N 36°50' W 076°18'0 0.1
2018-Jun-19 14:41N 36°50' W 076°17'0 0.0
2018-Jun-19 13:24N 36°50' W 076°17'0 0.0
2018-Jun-19 12:41N 36°50' W 076°17'0 0.0
2018-Jun-19 11:49N 36°50' W 076°17'0 0.0
2018-Jun-19 11:13N 36°50' W 076°17'0 0.0
2018-Jun-19 10:54N 36°50' W 076°17'0 0.0
2018-Jun-19 07:09N 36°50' W 076°17'0 0.0
2018-Jun-19 05:07N 36°50' W 076°17'0 0.0
2018-Jun-19 04:13N 36°50' W 076°17'0 0.0
2018-Jun-19 03:02N 36°50' W 076°17'0 0.0
2018-Jun-19 02:54N 36°50' W 076°17'0 0.0
2018-Jun-19 02:30N 36°50' W 076°17'0 0.0
2018-Jun-19 01:19N 36°50' W 076°17'0 0.0
2018-Jun-19 00:28N 36°50' W 076°17'0 0.0
2018-Jun-18 23:52N 36°50' W 076°17'5 1.2
2018-Jun-18 19:56N 36°55' W 076°20'24 1.6
2018-Jun-18 04:30N 37°18' W 076°10'4 7.5
2018-Jun-18 03:59N 37°21' W 076°10'87 8.3
2018-Jun-17 17:33N 38°47' W 076°26'0 9.1
2018-Jun-17 17:30N 38°48' W 076°26'4 8.5
2018-Jun-17 17:00N 38°52' W 076°25'4 8.4
2018-Jun-17 16:30N 38°56' W 076°23'21 7.9
2018-Jun-17 13:50N 39°16' W 076°14'3 7.7
2018-Jun-17 13:29N 39°18' W 076°13'4 7.5
2018-Jun-17 13:00N 39°21' W 076°10'4 8.2
2018-Jun-17 12:29N 39°23' W 076°05'4 8.7
2018-Jun-17 11:59N 39°26' W 076°01'4 9.3
2018-Jun-17 11:30N 39°29' W 075°57'11 7.9
2018-Jun-17 10:09N 39°32' W 075°44'1 9.7
2018-Jun-17 10:00N 39°33' W 075°42'5 9.5
2018-Jun-17 09:30N 39°33' W 075°36'3 5.4
2018-Jun-17 09:00N 39°36' W 075°34'4 8.4
2018-Jun-17 08:30N 39°40' W 075°32'4 9.0
2018-Jun-17 08:00N 39°44' W 075°30'4 7.9
2018-Jun-17 07:29N 39°47' W 075°27'4 7.9
2018-Jun-17 07:00N 39°49' W 075°23'3 6.9
2018-Jun-17 06:30N 39°51' W 075°19'4 7.2
2018-Jun-17 06:00N 39°51' W 075°15'4 7.4
2018-Jun-17 05:30N 39°53' W 075°10'3 5.2
2018-Jun-17 05:01N 39°55' W 075°08'1 1.1
2018-Jun-17 04:30N 39°54' W 075°08'0 0.0
2018-Jun-17 04:00N 39°54' W 075°08'0 0.0
2018-Jun-17 03:30N 39°54' W 075°08'0 0.0
2018-Jun-17 03:00N 39°54' W 075°08'0 0.0
2018-Jun-17 02:30N 39°54' W 075°08'0 0.0
2018-Jun-17 02:00N 39°54' W 075°08'0 0.0
2018-Jun-17 01:30N 39°54' W 075°08'0 0.0
2018-Jun-17 01:00N 39°54' W 075°08'0 0.0
2018-Jun-17 00:30N 39°54' W 075°08'0 0.0
2018-Jun-17 00:00N 39°54' W 075°08'0 0.3
2018-Jun-16 23:30N 39°54' W 075°08'0 0.0
2018-Jun-16 23:00N 39°54' W 075°08'0 0.0
2018-Jun-16 22:30N 39°54' W 075°08'0 0.0
2018-Jun-16 22:00N 39°54' W 075°08'0 0.0
2018-Jun-16 21:30N 39°54' W 075°08'0 0.0
2018-Jun-16 21:00N 39°54' W 075°08'0 0.0
2018-Jun-16 20:30N 39°54' W 075°08'0 0.0
2018-Jun-16 20:00N 39°54' W 075°08'0 0.0
2018-Jun-16 19:30N 39°54' W 075°08'0 0.0
2018-Jun-16 19:00N 39°54' W 075°08'0 0.0
2018-Jun-16 18:30N 39°54' W 075°08'0 0.0
2018-Jun-16 18:00N 39°54' W 075°08'0 0.0
2018-Jun-16 17:30N 39°54' W 075°08'0 0.0
2018-Jun-16 17:00N 39°54' W 075°08'0 0.1
2018-Jun-16 16:30N 39°54' W 075°08'0 0.2
2018-Jun-16 16:00N 39°54' W 075°08'1 1.7
2018-Jun-16 15:30N 39°53' W 075°08'2 3.4
2018-Jun-16 15:00N 39°53' W 075°10'2 3.4
2018-Jun-16 14:30N 39°52' W 075°12'2 3.6
2018-Jun-16 14:00N 39°51' W 075°14'2 4.0
2018-Jun-16 13:30N 39°51' W 075°17'2 4.1
2018-Jun-16 13:01N 39°51' W 075°20'2 4.0
2018-Jun-16 12:31N 39°50' W 075°22'2 3.6
2018-Jun-16 12:00N 39°49' W 075°24'2 4.0
2018-Jun-16 11:30N 39°48' W 075°26'2 3.9
2018-Jun-16 11:00N 39°47' W 075°28'2 3.9
2018-Jun-16 10:31N 39°45' W 075°29'2 4.0
2018-Jun-16 10:00N 39°43' W 075°30'3 5.1
2018-Jun-16 09:30N 39°41' W 075°31'3 5.7
2018-Jun-16 09:01N 39°39' W 075°34'3 5.1
2018-Jun-16 08:30N 39°36' W 075°34'2 4.7
2018-Jun-16 08:00N 39°34' W 075°34'3 6.7
2018-Jun-16 07:30N 39°33' W 075°38'3 6.5
2018-Jun-16 07:00N 39°33' W 075°43'32 7.1
2018-Jun-16 02:25N 39°12' W 076°15'6 7.5
2018-Jun-16 01:40N 39°09' W 076°21'1 7.8
2018-Jun-16 01:31N 39°10' W 076°23'4 8.1
2018-Jun-16 01:00N 39°11' W 076°28'4 7.9
2018-Jun-16 00:30N 39°13' W 076°32'2 4.5
2018-Jun-16 00:01N 39°15' W 076°33'0 0.0
2018-Jun-15 23:30N 39°15' W 076°33'2 3.1
2018-Jun-15 23:01N 39°16' W 076°35'0 0.2
2018-Jun-15 22:31N 39°16' W 076°35'0 0.0
2018-Jun-15 22:01N 39°16' W 076°35'0 0.0
2018-Jun-15 21:31N 39°16' W 076°35'0 0.0
2018-Jun-15 20:59N 39°16' W 076°35'0 0.0
2018-Jun-15 20:30N 39°16' W 076°35'0 0.7
2018-Jun-15 20:00N 39°16' W 076°35'1 1.5
2018-Jun-15 19:30N 39°16' W 076°36'0 0.0
2018-Jun-15 19:00N 39°16' W 076°36'0 0.0
2018-Jun-15 18:31N 39°16' W 076°36'0 0.0
2018-Jun-15 18:00N 39°16' W 076°36'0 0.0
2018-Jun-15 17:31N 39°16' W 076°36'0 0.0
2018-Jun-15 17:01N 39°16' W 076°36'0 0.0
2018-Jun-15 16:30N 39°16' W 076°36'0 0.0
2018-Jun-15 16:00N 39°16' W 076°36'0 0.0
2018-Jun-15 15:30N 39°16' W 076°36'0 0.0
2018-Jun-15 15:00N 39°16' W 076°36'0 0.0
2018-Jun-15 14:30N 39°16' W 076°36'0 0.0
2018-Jun-15 14:00N 39°16' W 076°36'0 0.0
2018-Jun-15 13:30N 39°16' W 076°36'0 0.0
2018-Jun-15 13:00N 39°16' W 076°36'0 0.0
2018-Jun-15 12:30N 39°16' W 076°36'0 0.0
2018-Jun-15 12:00N 39°16' W 076°36'1 1.9
2018-Jun-15 11:30N 39°16' W 076°35'2 3.0
2018-Jun-15 11:00N 39°15' W 076°33'0 1.0
2018-Jun-15 10:30N 39°15' W 076°33'3 5.1
2018-Jun-15 10:00N 39°13' W 076°31'14 8.4
2018-Jun-15 08:21N 39°01' W 076°22'410.0
2018-Jun-15 07:56N 38°57' W 076°24'4 9.6
2018-Jun-15 07:30N 38°53' W 076°25'5 9.4
2018-Jun-15 07:00N 38°48' W 076°26'116 5.4
2018-Jun-14 09:33N 36°53' W 076°21'0 0.9
2018-Jun-14 09:30N 36°53' W 076°21'2 4.2
2018-Jun-14 08:57N 36°55' W 076°20'1 1.6
2018-Jun-14 08:30N 36°54' W 076°20'0 0.0
2018-Jun-14 08:00N 36°54' W 076°20'0 0.0
2018-Jun-14 07:30N 36°54' W 076°20'0 0.0
2018-Jun-14 07:00N 36°54' W 076°20'0 0.0
2018-Jun-14 06:30N 36°54' W 076°20'0 0.0
2018-Jun-14 05:57N 36°54' W 076°20'0 0.0
2018-Jun-14 05:25N 36°54' W 076°20'0 0.0
2018-Jun-14 04:58N 36°54' W 076°20'0 0.0
2018-Jun-14 04:23N 36°54' W 076°20'0 0.0
2018-Jun-14 03:48N 36°54' W 076°20'  

Dump ship's entire track history